Terminal Aerodrome Forecast
Issued by NWS Mt. Holly, NJ

Home | Current Version | Previous Version | Text Only | Print | Product List | Glossary On
Versions: 1 2 3 4 5 6 7 8 9 10 11 12 13 14 15 16 17 18 19 20 21 22 23 24 25 26 27 28 29
000
FTUS41 KPHI 032029 AAB
TAFILG
TAF AMD
KILG 032029Z 0320/0418 18010KT 4SM -FZRAPL OVC045
      TEMPO 0320/0324 -FZRA OVC025
     FM040000 18006KT 3SM -FZRAPL OVC005 WS020/21040KT
     FM040200 20008KT 2SM RA BR OVC005 WS015/23050KT
     FM040800 22008KT 3SM -RA BR OVC003 WS020/25040KT
     FM041100 25006KT 2SM -RA BR OVC005
     FM041400 29003KT 2SM -RA BR OVC007=

USA.gov is the U.S. government's official web portal to all federal, state and local government web resources and services.